createdAt,value
2023-07-10T00:01:40.489Z,101441.00
2023-07-10T00:04:23.452Z,101445.52
2023-07-10T00:06:58.149Z,101440.52
2023-07-10T00:09:33.722Z,101438.03
2023-07-10T00:12:20.026Z,101437.52
2023-07-10T00:14:56.314Z,101443.95
2023-07-10T00:17:36.630Z,101446.98
2023-07-10T00:20:18.444Z,101450.08
2023-07-10T00:22:52.273Z,101448.16
2023-07-10T00:25:27.560Z,101444.86
2023-07-10T00:28:02.583Z,101444.95
2023-07-10T00:30:46.966Z,101449.61
2023-07-10T00:33:24.306Z,101448.04
2023-07-10T00:35:59.348Z,101447.54
2023-07-10T00:38:36.933Z,101448.65
2023-07-10T00:41:12.032Z,101451.02
2023-07-10T00:43:49.865Z,101451.80
2023-07-10T00:46:36.206Z,101447.89
2023-07-10T00:49:20.258Z,101445.58
2023-07-10T00:52:02.539Z,101443.45
2023-07-10T00:54:42.332Z,101441.04
2023-07-10T00:57:18.278Z,101435.37
2023-07-10T00:59:56.958Z,101433.27
2023-07-10T01:02:33.137Z,101426.02
2023-07-10T01:05:15.080Z,101430.02
2023-07-10T01:07:57.523Z,101433.10
2023-07-10T01:10:31.644Z,101441.73
2023-07-10T01:13:06.523Z,101442.67
2023-07-10T01:15:41.598Z,101442.38
2023-07-10T01:18:17.071Z,101439.61
2023-07-10T01:20:54.094Z,101438.94
2023-07-10T01:23:28.743Z,101441.67
2023-07-10T01:26:07.297Z,101441.20
2023-07-10T01:28:43.921Z,101443.53
2023-07-10T01:31:22.901Z,101447.14
2023-07-10T01:33:59.666Z,101456.86
2023-07-10T01:36:38.317Z,101451.73
2023-07-10T01:39:38.954Z,101448.23
2023-07-10T01:42:15.340Z,101445.69
2023-07-10T01:44:54.991Z,101442.89
2023-07-10T01:47:28.701Z,101437.96
2023-07-10T01:50:05.198Z,101438.05
2023-07-10T01:52:40.507Z,101441.33
2023-07-10T01:55:21.956Z,101438.16
2023-07-10T01:57:56.785Z,101444.49
2023-07-10T02:00:32.918Z,101450.83
2023-07-10T02:03:07.029Z,101452.36
2023-07-10T02:05:40.815Z,101453.70
2023-07-10T02:08:17.124Z,101444.59
2023-07-10T02:10:53.833Z,101437.23
2023-07-10T02:13:32.663Z,101442.48
2023-07-10T02:16:14.204Z,101444.42
2023-07-10T02:18:49.900Z,101441.69
2023-07-10T02:21:26.074Z,101442.33
2023-07-10T02:24:03.570Z,101444.02
2023-07-10T02:26:40.380Z,101452.03
2023-07-10T02:29:16.800Z,101453.40
2023-07-10T02:31:53.062Z,101455.86
2023-07-10T02:34:28.178Z,101457.45
2023-07-10T02:37:04.823Z,101464.25
2023-07-10T02:39:40.140Z,101461.39
2023-07-10T02:42:15.626Z,101460.48
2023-07-10T02:44:50.894Z,101466.73
2023-07-10T02:47:25.586Z,101475.16
2023-07-10T02:50:01.451Z,101473.75
2023-07-10T02:52:39.442Z,101475.35
2023-07-10T02:55:16.566Z,101475.93
2023-07-10T02:57:52.349Z,101477.08
2023-07-10T03:00:28.357Z,101481.05
2023-07-10T03:03:04.872Z,101479.86
2023-07-10T03:05:42.471Z,101479.88
2023-07-10T03:08:16.269Z,101481.66
2023-07-10T03:10:52.224Z,101481.36
2023-07-10T03:13:30.888Z,101480.17
2023-07-10T03:16:10.682Z,101482.89
2023-07-10T03:18:45.499Z,101482.80
2023-07-10T03:21:23.106Z,101484.85
2023-07-10T03:23:58.900Z,101487.79
2023-07-10T03:26:35.317Z,101484.67
2023-07-10T03:29:14.578Z,101483.27
2023-07-10T03:31:59.861Z,101492.34
2023-07-10T03:34:38.677Z,101495.19
2023-07-10T03:37:14.703Z,101493.08
2023-07-10T03:39:51.086Z,101488.66
2023-07-10T03:42:27.365Z,101491.01
2023-07-10T03:45:02.677Z,101487.70
2023-07-10T03:47:36.745Z,101487.23
2023-07-10T03:50:16.693Z,101489.41
2023-07-10T03:52:51.928Z,101490.48
2023-07-10T03:55:26.623Z,101482.79
2023-07-10T03:58:02.009Z,101484.69
2023-07-10T04:00:39.643Z,101483.00
2023-07-10T04:03:15.074Z,101479.74
2023-07-10T04:05:50.221Z,101475.29
2023-07-10T04:08:26.342Z,101475.67
2023-07-10T04:11:03.651Z,101471.25
2023-07-10T04:13:38.773Z,101469.29
2023-07-10T04:16:18.306Z,101465.26
2023-07-10T04:18:57.820Z,101467.23
2023-07-10T04:21:36.262Z,101464.31
2023-07-10T04:24:15.004Z,101459.77
2023-07-10T04:26:51.731Z,101460.35
2023-07-10T04:29:28.118Z,101456.90
2023-07-10T04:32:02.903Z,101456.10
2023-07-10T04:34:38.384Z,101454.70
2023-07-10T04:37:14.042Z,101451.43
2023-07-10T04:39:49.470Z,101450.21
2023-07-10T04:42:25.286Z,101449.73
2023-07-10T04:45:02.695Z,101448.42
2023-07-10T04:47:46.260Z,101452.98
2023-07-10T04:50:20.809Z,101451.90
2023-07-10T04:52:57.289Z,101450.00
2023-07-10T04:55:32.285Z,101450.79
2023-07-10T04:58:09.656Z,101441.20
2023-07-10T05:01:00.149Z,101431.95
2023-07-10T05:03:37.854Z,101426.97
2023-07-10T05:06:12.313Z,101433.10
2023-07-10T05:08:50.977Z,101431.63
2023-07-10T05:11:29.081Z,101423.27
2023-07-10T05:14:03.314Z,101426.20
2023-07-10T05:16:42.661Z,101427.79
2023-07-10T05:19:26.250Z,101433.56
2023-07-10T05:22:01.772Z,101432.60
2023-07-10T05:24:40.823Z,101439.78
2023-07-10T05:27:16.176Z,101442.05
2023-07-10T05:29:58.549Z,101436.89
2023-07-10T05:32:35.242Z,101440.88
2023-07-10T05:35:12.148Z,101442.83
2023-07-10T05:37:46.781Z,101440.96
2023-07-10T05:40:25.831Z,101444.25
2023-07-10T05:43:07.712Z,101445.39
2023-07-10T05:45:45.232Z,101442.36
2023-07-10T05:48:20.120Z,101445.01
2023-07-10T05:50:55.755Z,101446.32
2023-07-10T05:53:30.830Z,101446.42
2023-07-10T05:56:07.145Z,101445.95
2023-07-10T05:58:44.273Z,101448.68
2023-07-10T06:01:26.266Z,101445.68
2023-07-10T06:04:01.654Z,101442.61
2023-07-10T06:06:57.241Z,101438.02
2023-07-10T06:09:34.396Z,101436.50
2023-07-10T06:12:13.097Z,101436.90
2023-07-10T06:14:49.756Z,101430.86
2023-07-10T06:17:24.602Z,101429.45
2023-07-10T06:20:01.434Z,101426.37
2023-07-10T06:22:36.760Z,101426.92
2023-07-10T06:25:13.370Z,101423.70
2023-07-10T06:27:51.574Z,101420.63
2023-07-10T06:30:27.654Z,101419.15
2023-07-10T06:33:04.406Z,101415.36
2023-07-10T06:35:40.735Z,101413.04
2023-07-10T06:38:15.187Z,101406.31
2023-07-10T06:40:53.394Z,101403.83
2023-07-10T06:43:29.251Z,101398.10
2023-07-10T06:46:04.456Z,101396.55
2023-07-10T06:48:40.883Z,101395.93
2023-07-10T06:51:15.609Z,101390.76
2023-07-10T06:53:49.691Z,101388.62
2023-07-10T06:56:25.604Z,101385.01
2023-07-10T06:59:02.127Z,101385.00
2023-07-10T07:01:37.020Z,101383.73
2023-07-10T07:04:14.531Z,101382.81
2023-07-10T07:06:50.796Z,101382.61
2023-07-10T07:09:26.572Z,101378.98
2023-07-10T07:12:02.613Z,101375.38
2023-07-10T07:14:37.340Z,101369.95
2023-07-10T07:17:11.685Z,101366.70
2023-07-10T07:19:47.605Z,101368.13
2023-07-10T07:22:21.762Z,101365.23
2023-07-10T07:24:58.529Z,101369.36
2023-07-10T07:27:33.501Z,101369.38
2023-07-10T07:30:13.220Z,101370.27
2023-07-10T07:32:50.945Z,101375.50
2023-07-10T07:35:25.039Z,101369.19
2023-07-10T07:38:01.756Z,101370.30
2023-07-10T07:40:36.517Z,101368.34
2023-07-10T07:43:13.464Z,101361.86
2023-07-10T07:45:58.039Z,101360.98
2023-07-10T07:48:31.918Z,101355.92
2023-07-10T07:51:10.260Z,101358.30
2023-07-10T07:53:46.100Z,101358.69
2023-07-10T07:56:21.714Z,101358.17
2023-07-10T07:58:57.339Z,101353.33
2023-07-10T08:01:34.105Z,101352.30
2023-07-10T08:04:09.409Z,101352.52
2023-07-10T08:06:44.825Z,101353.45
2023-07-10T08:09:20.887Z,101354.04
2023-07-10T08:11:58.007Z,101353.00
2023-07-10T08:14:34.359Z,101349.95
2023-07-10T08:17:09.796Z,101348.36
2023-07-10T08:19:46.967Z,101340.97
2023-07-10T08:22:22.455Z,101338.28
2023-07-10T08:24:57.984Z,101337.59
2023-07-10T08:27:31.834Z,101337.61
2023-07-10T08:30:07.339Z,101335.98
2023-07-10T08:32:43.441Z,101336.91
2023-07-10T08:35:17.806Z,101337.31
2023-07-10T08:37:52.866Z,101334.06
2023-07-10T08:40:33.033Z,101328.27
2023-07-10T08:43:19.411Z,101327.73
2023-07-10T08:45:59.937Z,101326.84
2023-07-10T08:48:37.924Z,101328.49
2023-07-10T08:51:29.554Z,101332.46
2023-07-10T08:54:09.754Z,101326.69
2023-07-10T08:56:49.599Z,101321.09
2023-07-10T09:02:38.305Z,101315.67
2023-07-10T09:05:22.029Z,101312.05
2023-07-10T09:07:59.811Z,101312.97
2023-07-10T09:10:40.204Z,101306.83
2023-07-10T09:13:27.408Z,101308.81
2023-07-10T09:16:05.243Z,101304.85
2023-07-10T09:18:51.095Z,101306.33
2023-07-10T09:21:33.960Z,101308.13
2023-07-10T09:24:29.101Z,101303.98
2023-07-10T09:27:04.317Z,101292.74
2023-07-10T09:29:41.924Z,101288.77
2023-07-10T09:32:20.184Z,101284.59
2023-07-10T09:35:00.875Z,101282.77
2023-07-10T09:37:39.990Z,101279.31
2023-07-10T09:40:45.553Z,101274.05
2023-07-10T09:43:22.989Z,101273.66
2023-07-10T09:46:04.617Z,101274.21
2023-07-10T09:48:40.994Z,101274.36
2023-07-10T09:51:18.532Z,101273.59
2023-07-10T09:54:05.519Z,101271.17
2023-07-10T09:56:41.781Z,101265.10
2023-07-10T09:59:25.320Z,101267.39
2023-07-10T10:02:05.678Z,101274.02
2023-07-10T10:04:40.500Z,101276.36
2023-07-10T10:07:24.960Z,101272.16
2023-07-10T10:10:25.116Z,101267.02
2023-07-10T10:13:15.157Z,101264.94
2023-07-10T10:15:54.578Z,101264.49
2023-07-10T10:18:43.209Z,101258.30
2023-07-10T10:21:21.635Z,101258.43
2023-07-10T10:24:00.443Z,101253.32
2023-07-10T10:26:51.621Z,101250.41
2023-07-10T10:29:51.922Z,101248.77
2023-07-10T10:32:35.395Z,101246.73
2023-07-10T10:35:17.838Z,101240.69
2023-07-10T10:38:06.626Z,101237.02
2023-07-10T10:40:51.724Z,101232.61
2023-07-10T10:43:46.138Z,101226.68
2023-07-10T10:46:29.729Z,101218.04
2023-07-10T10:49:29.366Z,101217.83
2023-07-10T10:52:12.545Z,101219.71
2023-07-10T10:54:58.960Z,101220.67
2023-07-10T10:57:44.957Z,101214.45
2023-07-10T11:00:41.334Z,101210.18
2023-07-10T11:03:27.518Z,101205.00
2023-07-10T11:06:17.215Z,101200.59
2023-07-10T11:08:56.252Z,101196.48
2023-07-10T11:11:33.644Z,101190.04
2023-07-10T11:14:09.146Z,101188.71
2023-07-10T11:16:44.166Z,101184.65
2023-07-10T11:19:25.797Z,101177.50
2023-07-10T11:22:11.158Z,101174.34
2023-07-10T11:24:54.114Z,101171.05
2023-07-10T11:27:39.572Z,101171.38
2023-07-10T11:30:21.445Z,101169.13
2023-07-10T11:33:06.820Z,101168.88
2023-07-10T11:36:23.928Z,101165.61
2023-07-10T11:39:13.593Z,101159.79
2023-07-10T11:42:14.928Z,101151.86
2023-07-10T11:45:02.031Z,101145.59
2023-07-10T11:47:40.019Z,101144.02
2023-07-10T11:50:28.669Z,101140.22
2023-07-10T11:53:24.672Z,101134.30
2023-07-10T11:56:10.152Z,101125.77
2023-07-10T11:58:44.813Z,101118.89
2023-07-10T12:01:24.577Z,101112.25
2023-07-10T12:04:00.091Z,101107.24
2023-07-10T12:06:37.083Z,101101.42
2023-07-10T12:09:15.760Z,101099.39
2023-07-10T12:11:57.286Z,101100.37
2023-07-10T12:14:34.048Z,101102.25
2023-07-10T12:20:28.274Z,101092.61
2023-07-10T12:23:06.620Z,101091.66
2023-07-10T12:25:41.440Z,101093.79
2023-07-10T12:28:26.984Z,101089.11
2023-07-10T12:31:14.821Z,101087.84
2023-07-10T12:33:54.800Z,101087.45
2023-07-10T12:36:34.983Z,101080.25
2023-07-10T12:39:11.772Z,101076.67
2023-07-10T12:41:48.605Z,101071.81
2023-07-10T12:44:28.241Z,101069.73
2023-07-10T12:47:15.816Z,101073.29
2023-07-10T12:50:01.132Z,101075.77
2023-07-10T12:52:41.451Z,101073.33
2023-07-10T12:55:23.646Z,101067.02
2023-07-10T12:58:04.078Z,101067.13
2023-07-10T13:00:52.363Z,101061.95
2023-07-10T13:03:33.891Z,101066.36
2023-07-10T13:06:16.023Z,101066.91
2023-07-10T13:08:53.569Z,101067.14
2023-07-10T13:11:41.271Z,101066.06
2023-07-10T13:14:28.984Z,101065.52
2023-07-10T13:17:04.073Z,101064.89
2023-07-10T13:19:41.442Z,101061.81
2023-07-10T13:22:22.199Z,101054.84
2023-07-10T13:24:56.755Z,101047.85
2023-07-10T13:27:31.067Z,101041.50
2023-07-10T13:30:19.785Z,101042.26
2023-07-10T13:32:53.758Z,101037.39
2023-07-10T13:35:28.044Z,101034.88
2023-07-10T13:38:03.144Z,101031.67
2023-07-10T13:40:37.481Z,101031.18
2023-07-10T13:43:18.435Z,101023.04
2023-07-10T13:45:57.045Z,101015.11
2023-07-10T13:48:31.853Z,101015.40
2023-07-10T13:51:06.744Z,101011.91
2023-07-10T13:53:41.573Z,101013.59
2023-07-10T13:56:20.682Z,101014.14
2023-07-10T13:58:56.859Z,101010.86
2023-07-10T14:01:35.116Z,101006.13
2023-07-10T14:04:09.869Z,101006.67
2023-07-10T14:06:48.265Z,101004.86
2023-07-10T14:09:22.491Z,101009.05
2023-07-10T14:11:58.305Z,101012.13
2023-07-10T14:14:33.202Z,101008.30
2023-07-10T14:17:14.011Z,101006.14
2023-07-10T14:19:49.561Z,101008.15
2023-07-10T14:22:22.650Z,101005.80
2023-07-10T14:24:55.746Z,101005.44
2023-07-10T14:27:31.224Z,101004.69
2023-07-10T14:30:05.550Z,101004.14
2023-07-10T14:32:40.783Z,101007.63
2023-07-10T14:35:21.218Z,101006.90
2023-07-10T14:37:58.454Z,100999.61
2023-07-10T14:40:34.630Z,100995.73
2023-07-10T14:43:11.872Z,100998.75
2023-07-10T14:45:50.569Z,100998.15
2023-07-10T14:48:29.260Z,100996.86
2023-07-10T14:51:02.440Z,100997.06
2023-07-10T14:53:39.185Z,100994.77
2023-07-10T14:56:19.627Z,100990.10
2023-07-10T14:58:54.369Z,100992.16
2023-07-10T15:01:32.117Z,100995.67
2023-07-10T15:04:09.674Z,100990.98
2023-07-10T15:06:46.843Z,100988.42
2023-07-10T15:09:21.529Z,100984.05
2023-07-10T15:11:56.260Z,100979.17
2023-07-10T15:14:30.701Z,100976.66
2023-07-10T15:17:04.859Z,100970.85
2023-07-10T15:19:43.341Z,100965.55
2023-07-10T15:22:19.688Z,100960.99
2023-07-10T15:24:55.015Z,100961.52
2023-07-10T15:27:31.148Z,100957.73
2023-07-10T15:30:06.780Z,100958.13
2023-07-10T15:32:43.951Z,100956.34
2023-07-10T15:35:22.639Z,100952.80
2023-07-10T15:37:59.341Z,100950.88
2023-07-10T15:40:37.585Z,100948.67
2023-07-10T15:43:24.520Z,100949.40
2023-07-10T15:46:01.924Z,100948.48
2023-07-10T15:48:36.905Z,100943.31
2023-07-10T15:51:24.542Z,100936.86
2023-07-10T15:53:59.499Z,100931.86
2023-07-10T15:56:35.234Z,100931.17
2023-07-10T15:59:16.285Z,100930.05
2023-07-10T16:01:55.164Z,100923.11
2023-07-10T16:04:29.270Z,100919.98
2023-07-10T16:07:05.154Z,100912.29
2023-07-10T16:09:39.884Z,100913.33
2023-07-10T16:12:22.225Z,100913.91
2023-07-10T16:14:55.939Z,100915.70
2023-07-10T16:17:29.583Z,100912.94
2023-07-10T16:20:04.892Z,100911.74
2023-07-10T16:22:38.490Z,100911.31
2023-07-10T16:25:18.516Z,100915.88
2023-07-10T16:27:53.774Z,100917.52
2023-07-10T16:30:31.127Z,100919.41
2023-07-10T16:33:07.545Z,100918.16
2023-07-10T16:35:43.172Z,100912.34
2023-07-10T16:38:20.620Z,100912.33
2023-07-10T16:40:59.358Z,100916.13
2023-07-10T16:43:36.859Z,100914.11
2023-07-10T16:46:11.897Z,100906.95
2023-07-10T16:48:49.146Z,100901.44
2023-07-10T16:51:29.777Z,100895.56
2023-07-10T16:54:05.193Z,100893.10
2023-07-10T16:56:39.806Z,100893.56
2023-07-10T16:59:15.515Z,100889.48
2023-07-10T17:01:51.759Z,100880.91
2023-07-10T17:04:26.828Z,100877.85
2023-07-10T17:07:06.171Z,100875.46
2023-07-10T17:09:43.298Z,100872.31
2023-07-10T17:12:21.878Z,100874.65
2023-07-10T17:14:56.802Z,100870.16
2023-07-10T17:17:31.522Z,100866.31
2023-07-10T17:20:05.357Z,100863.50
2023-07-10T17:22:41.623Z,100859.61
2023-07-10T17:25:23.519Z,100858.25
2023-07-10T17:27:58.832Z,100862.52
2023-07-10T17:30:33.435Z,100863.52
2023-07-10T17:33:36.601Z,100862.16
2023-07-10T17:36:14.132Z,100862.62
2023-07-10T17:38:49.879Z,100860.16
2023-07-10T17:41:26.131Z,100852.59
2023-07-10T17:44:03.937Z,100847.73
2023-07-10T17:46:37.907Z,100848.51
2023-07-10T17:49:15.575Z,100848.56
2023-07-10T17:51:49.534Z,100847.92
2023-07-10T17:54:28.166Z,100844.35
2023-07-10T17:57:03.404Z,100846.00
2023-07-10T17:59:37.099Z,100846.22
2023-07-10T18:02:23.812Z,100853.16
2023-07-10T18:04:59.837Z,100855.21
2023-07-10T18:07:35.230Z,100854.16
2023-07-10T18:10:13.976Z,100852.71
2023-07-10T18:12:49.529Z,100857.79
2023-07-10T18:15:24.884Z,100854.73
2023-07-10T18:17:58.700Z,100850.98
2023-07-10T18:20:34.163Z,100847.21
2023-07-10T18:23:21.822Z,100840.92
2023-07-10T18:26:00.564Z,100842.05
2023-07-10T18:28:34.264Z,100833.39
2023-07-10T18:31:20.950Z,100832.15
2023-07-10T18:33:58.887Z,100830.56
2023-07-10T18:36:36.449Z,100827.50
2023-07-10T18:39:11.353Z,100821.93
2023-07-10T18:41:50.351Z,100828.09
2023-07-10T18:44:24.859Z,100826.86
2023-07-10T18:46:58.799Z,100823.44
2023-07-10T18:49:33.504Z,100823.08
2023-07-10T18:52:18.204Z,100821.11
2023-07-10T18:54:52.954Z,100823.83
2023-07-10T18:57:28.919Z,100823.12
2023-07-10T19:00:08.838Z,100825.49
2023-07-10T19:02:45.288Z,100830.73
2023-07-10T19:05:19.755Z,100834.90
2023-07-10T19:07:55.487Z,100840.14
2023-07-10T19:10:29.653Z,100844.14
2023-07-10T19:13:07.536Z,100844.68
2023-07-10T19:15:41.995Z,100845.23
2023-07-10T19:18:38.573Z,100846.88
2023-07-10T19:21:16.803Z,100846.17
2023-07-10T19:23:52.629Z,100849.61
2023-07-10T19:26:28.049Z,100853.05
2023-07-10T19:29:03.260Z,100855.05
2023-07-10T19:31:38.624Z,100856.13
2023-07-10T19:34:17.414Z,100861.20
2023-07-10T19:36:55.708Z,100862.46
2023-07-10T19:39:33.038Z,100864.42
2023-07-10T19:42:09.505Z,100871.65
2023-07-10T19:44:55.288Z,100877.77
2023-07-10T19:47:30.918Z,100883.92
2023-07-10T19:50:09.174Z,100893.66
2023-07-10T19:52:44.951Z,100896.38
2023-07-10T19:55:23.831Z,100894.75
2023-07-10T19:58:00.295Z,100896.20
2023-07-10T20:00:34.681Z,100906.48
2023-07-10T20:03:15.960Z,100910.09
2023-07-10T20:05:50.895Z,100908.83
2023-07-10T20:08:27.018Z,100903.41
2023-07-10T20:11:07.689Z,100897.83
2023-07-10T20:13:46.135Z,100891.49
2023-07-10T20:16:28.415Z,100894.36
2023-07-10T20:19:02.963Z,100904.41
2023-07-10T20:21:40.601Z,100915.92
2023-07-10T20:24:17.432Z,100929.05
2023-07-10T20:26:57.029Z,100932.08
2023-07-10T20:29:32.795Z,100930.61
2023-07-10T20:32:07.895Z,100935.61
2023-07-10T20:34:51.719Z,100942.55
2023-07-10T20:37:27.604Z,100955.27
2023-07-10T20:40:04.294Z,100960.33
2023-07-10T20:42:41.739Z,100965.55
2023-07-10T20:45:20.365Z,100968.41
2023-07-10T20:47:58.125Z,100964.56
2023-07-10T20:50:35.289Z,100960.09
2023-07-10T20:53:17.045Z,100958.80
2023-07-10T20:55:54.491Z,100957.85
2023-07-10T20:58:31.046Z,100957.47
2023-07-10T21:01:05.385Z,100954.69
2023-07-10T21:03:42.478Z,100960.41
2023-07-10T21:06:23.157Z,100963.91
2023-07-10T21:09:01.055Z,100959.00
2023-07-10T21:11:37.073Z,100955.64
2023-07-10T21:14:15.065Z,100959.84
2023-07-10T21:16:49.109Z,100966.96
2023-07-10T21:19:29.402Z,100967.57
2023-07-10T21:22:02.890Z,100959.25
2023-07-10T21:24:40.089Z,100946.87
2023-07-10T21:27:25.446Z,100938.51
2023-07-10T21:30:04.417Z,100937.79
2023-07-10T21:32:38.271Z,100940.05
2023-07-10T21:35:27.681Z,100940.92
2023-07-10T21:38:03.984Z,100944.27
2023-07-10T21:40:41.240Z,100943.77
2023-07-10T21:43:21.326Z,100939.68
2023-07-10T21:46:02.513Z,100937.73
2023-07-10T21:48:37.984Z,100936.17
2023-07-10T21:51:17.324Z,100937.40
2023-07-10T21:53:53.084Z,100941.14
2023-07-10T21:56:32.232Z,100948.60
2023-07-10T21:59:08.811Z,100951.75
2023-07-10T22:01:45.059Z,100952.70
2023-07-10T22:04:20.042Z,100956.52
2023-07-10T22:06:55.386Z,100958.88
2023-07-10T22:09:29.897Z,100955.57
2023-07-10T22:12:04.469Z,100952.36
2023-07-10T22:14:39.797Z,100953.90
2023-07-10T22:17:21.430Z,100955.20
2023-07-10T22:19:57.928Z,100957.54
2023-07-10T22:22:33.097Z,100957.80
2023-07-10T22:25:10.468Z,100957.23
2023-07-10T22:27:48.378Z,100955.77
2023-07-10T22:30:23.824Z,100954.52
2023-07-10T22:33:03.053Z,100953.44
2023-07-10T22:35:39.258Z,100953.91
2023-07-10T22:38:16.666Z,100944.34
2023-07-10T22:40:54.192Z,100937.96
2023-07-10T22:43:33.025Z,100938.04
2023-07-10T22:46:17.861Z,100932.77
2023-07-10T22:48:53.028Z,100923.73
2023-07-10T22:51:31.693Z,100932.78
2023-07-10T22:54:07.181Z,100937.56
2023-07-10T22:56:46.294Z,100943.73
2023-07-10T22:59:23.996Z,100950.83
2023-07-10T23:01:59.735Z,100957.54
2023-07-10T23:04:36.075Z,100960.52
2023-07-10T23:07:09.785Z,100959.23
2023-07-10T23:09:45.360Z,100957.55
2023-07-10T23:12:19.956Z,100958.25
2023-07-10T23:14:55.323Z,100954.27
2023-07-10T23:17:32.331Z,100945.97
2023-07-10T23:20:17.107Z,100945.92
2023-07-10T23:22:51.094Z,100949.27
2023-07-10T23:25:27.442Z,100948.29
2023-07-10T23:28:01.529Z,100948.02
2023-07-10T23:30:36.643Z,100947.06
2023-07-10T23:33:11.217Z,100944.67
2023-07-10T23:35:48.146Z,100943.70
2023-07-10T23:38:22.304Z,100944.70
2023-07-10T23:40:57.379Z,100956.64
2023-07-10T23:43:34.117Z,100956.55
2023-07-10T23:46:09.773Z,100957.20
2023-07-10T23:48:47.038Z,100964.35
2023-07-10T23:51:23.598Z,100974.13
2023-07-10T23:53:58.514Z,100982.73
2023-07-10T23:56:33.544Z,100996.27
2023-07-10T23:59:10.574Z,101008.45
